sensor_id;sensor_type;location;lat;lon;timestamp;P1;durP1;ratioP1;P2;durP2;ratioP2
59702;SDS011;45570;48.782;8.332;2022-08-19T07:14:45;20.77;;;15.40;;
59702;SDS011;45570;48.782;8.332;2022-08-19T07:17:15;22.45;;;15.65;;
59702;SDS011;45570;48.782;8.332;2022-08-19T07:19:47;19.25;;;15.20;;
59702;SDS011;45570;48.782;8.332;2022-08-19T07:22:19;21.58;;;16.23;;
59702;SDS011;45570;48.782;8.332;2022-08-19T07:24:50;21.40;;;15.48;;
59702;SDS011;45570;48.782;8.332;2022-08-19T07:27:19;19.23;;;14.90;;
59702;SDS011;45570;48.782;8.332;2022-08-19T07:29:52;20.67;;;15.73;;
59702;SDS011;45570;48.782;8.332;2022-08-19T07:32:23;20.58;;;15.18;;
59702;SDS011;45570;48.782;8.332;2022-08-19T07:34:53;17.83;;;14.88;;
59702;SDS011;45570;48.782;8.332;2022-08-19T07:37:22;17.58;;;14.43;;
59702;SDS011;45570;48.782;8.332;2022-08-19T07:39:58;16.77;;;14.30;;
59702;SDS011;45570;48.782;8.332;2022-08-19T07:42:27;16.90;;;14.05;;
59702;SDS011;45570;48.782;8.332;2022-08-19T07:44:58;16.02;;;13.95;;
59702;SDS011;45570;48.782;8.332;2022-08-19T07:47:27;17.42;;;13.32;;
59702;SDS011;45570;48.782;8.332;2022-08-19T07:50:16;16.80;;;13.90;;
59702;SDS011;45570;48.782;8.332;2022-08-19T07:52:46;21.48;;;14.20;;
59702;SDS011;45570;48.782;8.332;2022-08-19T07:55:17;19.95;;;13.85;;
59702;SDS011;45570;48.782;8.332;2022-08-19T07:58:08;19.52;;;14.10;;
59702;SDS011;45570;48.782;8.332;2022-08-19T08:00:39;15.35;;;13.27;;
59702;SDS011;45570;48.782;8.332;2022-08-19T08:03:08;16.10;;;12.48;;
59702;SDS011;45570;48.782;8.332;2022-08-19T08:05:37;17.05;;;13.10;;
59702;SDS011;45570;48.782;8.332;2022-08-19T08:08:23;18.45;;;12.88;;
59702;SDS011;45570;48.782;8.332;2022-08-19T08:11:14;14.10;;;12.10;;
59702;SDS011;45570;48.782;8.332;2022-08-19T08:13:46;15.05;;;12.18;;
59702;SDS011;45570;48.782;8.332;2022-08-19T08:16:33;15.38;;;12.20;;
59702;SDS011;45570;48.782;8.332;2022-08-19T08:19:12;15.55;;;12.68;;
59702;SDS011;45570;48.782;8.332;2022-08-19T08:21:51;17.95;;;11.90;;
59702;SDS011;45570;48.782;8.332;2022-08-19T08:24:21;14.35;;;12.38;;
59702;SDS011;45570;48.782;8.332;2022-08-19T08:26:54;13.63;;;11.70;;
59702;SDS011;45570;48.782;8.332;2022-08-19T08:29:25;17.02;;;13.30;;
59702;SDS011;45570;48.782;8.332;2022-08-19T08:32:02;14.23;;;12.55;;
59702;SDS011;45570;48.782;8.332;2022-08-19T08:34:40;14.98;;;11.93;;
59702;SDS011;45570;48.782;8.332;2022-08-19T08:37:09;15.13;;;11.70;;
59702;SDS011;45570;48.782;8.332;2022-08-19T08:39:41;15.75;;;12.68;;
59702;SDS011;45570;48.782;8.332;2022-08-19T08:42:11;15.00;;;12.57;;
59702;SDS011;45570;48.782;8.332;2022-08-19T08:44:48;19.33;;;13.18;;
59702;SDS011;45570;48.782;8.332;2022-08-19T08:47:30;14.50;;;11.77;;
59702;SDS011;45570;48.782;8.332;2022-08-19T08:50:08;17.17;;;11.88;;
59702;SDS011;45570;48.782;8.332;2022-08-19T08:52:43;15.45;;;12.10;;
59702;SDS011;45570;48.782;8.332;2022-08-19T08:55:16;14.73;;;11.15;;
59702;SDS011;45570;48.782;8.332;2022-08-19T08:57:50;15.02;;;12.30;;
59702;SDS011;45570;48.782;8.332;2022-08-19T09:00:25;13.15;;;10.95;;
59702;SDS011;45570;48.782;8.332;2022-08-19T09:02:59;16.80;;;11.55;;
59702;SDS011;45570;48.782;8.332;2022-08-19T09:05:33;12.07;;;10.55;;
59702;SDS011;45570;48.782;8.332;2022-08-19T09:08:20;12.35;;;11.10;;
59702;SDS011;45570;48.782;8.332;2022-08-19T09:10:57;13.77;;;10.63;;
59702;SDS011;45570;48.782;8.332;2022-08-19T09:13:27;13.98;;;11.38;;
59702;SDS011;45570;48.782;8.332;2022-08-19T09:16:05;11.77;;;9.52;;
59702;SDS011;45570;48.782;8.332;2022-08-19T09:18:40;11.77;;;10.60;;
59702;SDS011;45570;48.782;8.332;2022-08-19T09:21:09;15.70;;;12.93;;
59702;SDS011;45570;48.782;8.332;2022-08-19T09:23:38;13.02;;;11.23;;
59702;SDS011;45570;48.782;8.332;2022-08-19T09:26:10;12.98;;;10.27;;
59702;SDS011;45570;48.782;8.332;2022-08-19T09:28:42;10.75;;;9.63;;
59702;SDS011;45570;48.782;8.332;2022-08-19T09:31:15;10.82;;;9.60;;
59702;SDS011;45570;48.782;8.332;2022-08-19T09:33:47;13.32;;;11.68;;
59702;SDS011;45570;48.782;8.332;2022-08-19T09:36:18;12.50;;;10.50;;
59702;SDS011;45570;48.782;8.332;2022-08-19T09:39:00;11.60;;;9.05;;
59702;SDS011;45570;48.782;8.332;2022-08-19T09:41:29;11.85;;;9.70;;
59702;SDS011;45570;48.782;8.332;2022-08-19T09:43:59;12.77;;;10.98;;
59702;SDS011;45570;48.782;8.332;2022-08-19T09:46:28;14.68;;;10.73;;
59702;SDS011;45570;48.782;8.332;2022-08-19T09:48:59;13.98;;;9.90;;
59702;SDS011;45570;48.782;8.332;2022-08-19T09:51:32;10.60;;;9.45;;
59702;SDS011;45570;48.782;8.332;2022-08-19T09:54:03;10.85;;;9.63;;
59702;SDS011;45570;48.782;8.332;2022-08-19T09:56:36;9.82;;;8.82;;
59702;SDS011;45570;48.782;8.332;2022-08-19T09:59:07;10.50;;;9.27;;
59702;SDS011;45570;48.782;8.332;2022-08-19T10:01:38;8.98;;;7.82;;
59702;SDS011;45570;48.782;8.332;2022-08-19T10:04:10;8.82;;;7.55;;
59702;SDS011;45570;48.782;8.332;2022-08-19T10:06:46;12.00;;;9.57;;
59702;SDS011;45570;48.782;8.332;2022-08-19T10:09:19;11.90;;;8.63;;
59702;SDS011;45570;48.782;8.332;2022-08-19T10:12:00;9.38;;;8.20;;
59702;SDS011;45570;48.782;8.332;2022-08-19T10:14:31;10.70;;;8.57;;
59702;SDS011;45570;48.782;8.332;2022-08-19T10:17:00;12.02;;;9.50;;
59702;SDS011;45570;48.782;8.332;2022-08-19T10:19:48;9.57;;;8.57;;
59702;SDS011;45570;48.782;8.332;2022-08-19T10:22:21;10.13;;;9.03;;
59702;SDS011;45570;48.782;8.332;2022-08-19T10:24:51;12.48;;;9.48;;
59702;SDS011;45570;48.782;8.332;2022-08-19T10:27:20;12.88;;;10.43;;
59702;SDS011;45570;48.782;8.332;2022-08-19T10:29:51;11.80;;;10.60;;
59702;SDS011;45570;48.782;8.332;2022-08-19T10:32:20;11.63;;;10.32;;
59702;SDS011;45570;48.782;8.332;2022-08-19T10:35:01;10.63;;;9.52;;
59702;SDS011;45570;48.782;8.332;2022-08-19T10:37:32;11.60;;;10.40;;
59702;SDS011;45570;48.782;8.332;2022-08-19T10:40:02;11.88;;;9.60;;
59702;SDS011;45570;48.782;8.332;2022-08-19T10:42:33;10.32;;;9.27;;
59702;SDS011;45570;48.782;8.332;2022-08-19T10:45:03;12.73;;;8.90;;
59702;SDS011;45570;48.782;8.332;2022-08-19T10:47:33;9.95;;;8.65;;
59702;SDS011;45570;48.782;8.332;2022-08-19T10:50:04;8.57;;;7.75;;
59702;SDS011;45570;48.782;8.332;2022-08-19T10:52:55;9.68;;;8.50;;
59702;SDS011;45570;48.782;8.332;2022-08-19T10:55:24;8.93;;;8.02;;
59702;SDS011;45570;48.782;8.332;2022-08-19T10:58:11;10.38;;;8.40;;
59702;SDS011;45570;48.782;8.332;2022-08-19T11:00:42;9.80;;;7.40;;
59702;SDS011;45570;48.782;8.332;2022-08-19T11:03:18;8.15;;;7.25;;
59702;SDS011;45570;48.782;8.332;2022-08-19T11:05:58;8.98;;;8.02;;
59702;SDS011;45570;48.782;8.332;2022-08-19T11:08:27;11.50;;;7.05;;
59702;SDS011;45570;48.782;8.332;2022-08-19T11:10:58;7.78;;;6.95;;
59702;SDS011;45570;48.782;8.332;2022-08-19T11:13:30;7.32;;;6.70;;
59702;SDS011;45570;48.782;8.332;2022-08-19T11:16:01;7.95;;;6.90;;
59702;SDS011;45570;48.782;8.332;2022-08-19T11:18:34;6.25;;;5.65;;
59702;SDS011;45570;48.782;8.332;2022-08-19T11:21:06;6.32;;;5.72;;
59702;SDS011;45570;48.782;8.332;2022-08-19T11:23:37;9.95;;;6.15;;
59702;SDS011;45570;48.782;8.332;2022-08-19T11:26:05;7.28;;;5.50;;
59702;SDS011;45570;48.782;8.332;2022-08-19T11:28:34;6.80;;;6.20;;
59702;SDS011;45570;48.782;8.332;2022-08-19T11:31:03;7.97;;;6.05;;
59702;SDS011;45570;48.782;8.332;2022-08-19T11:33:36;6.60;;;5.97;;
59702;SDS011;45570;48.782;8.332;2022-08-19T11:36:07;9.60;;;6.97;;
59702;SDS011;45570;48.782;8.332;2022-08-19T11:38:40;7.63;;;6.93;;
59702;SDS011;45570;48.782;8.332;2022-08-19T11:41:09;8.15;;;7.35;;
59702;SDS011;45570;48.782;8.332;2022-08-19T11:43:38;7.40;;;6.80;;
59702;SDS011;45570;48.782;8.332;2022-08-19T11:46:07;8.18;;;7.38;;
59702;SDS011;45570;48.782;8.332;2022-08-19T11:48:38;8.27;;;7.53;;
59702;SDS011;45570;48.782;8.332;2022-08-19T11:51:11;7.85;;;7.15;;
59702;SDS011;45570;48.782;8.332;2022-08-19T11:53:42;12.02;;;7.57;;
59702;SDS011;45570;48.782;8.332;2022-08-19T11:56:11;11.13;;;8.02;;
59702;SDS011;45570;48.782;8.332;2022-08-19T11:58:40;8.10;;;7.30;;
59702;SDS011;45570;48.782;8.332;2022-08-19T12:01:10;7.95;;;7.25;;
59702;SDS011;45570;48.782;8.332;2022-08-19T12:03:40;8.75;;;7.95;;
59702;SDS011;45570;48.782;8.332;2022-08-19T12:06:12;9.70;;;8.70;;
59702;SDS011;45570;48.782;8.332;2022-08-19T12:08:43;10.32;;;7.55;;
59702;SDS011;45570;48.782;8.332;2022-08-19T12:11:12;8.68;;;7.78;;
59702;SDS011;45570;48.782;8.332;2022-08-19T12:13:42;9.35;;;8.52;;
59702;SDS011;45570;48.782;8.332;2022-08-19T12:16:12;9.63;;;7.88;;
59702;SDS011;45570;48.782;8.332;2022-08-19T12:18:43;9.15;;;8.25;;
59702;SDS011;45570;48.782;8.332;2022-08-19T12:21:14;9.00;;;7.95;;
59702;SDS011;45570;48.782;8.332;2022-08-19T12:23:44;8.18;;;7.47;;
59702;SDS011;45570;48.782;8.332;2022-08-19T12:26:12;9.95;;;8.95;;
59702;SDS011;45570;48.782;8.332;2022-08-19T12:28:41;9.32;;;8.25;;
59702;SDS011;45570;48.782;8.332;2022-08-19T12:31:10;8.27;;;7.45;;
59702;SDS011;45570;48.782;8.332;2022-08-19T12:33:40;10.23;;;8.77;;
59702;SDS011;45570;48.782;8.332;2022-08-19T12:36:09;9.63;;;8.73;;
59702;SDS011;45570;48.782;8.332;2022-08-19T12:38:40;9.35;;;8.30;;
59702;SDS011;45570;48.782;8.332;2022-08-19T12:41:11;9.10;;;8.30;;
59702;SDS011;45570;48.782;8.332;2022-08-19T12:43:41;10.52;;;9.10;;
59702;SDS011;45570;48.782;8.332;2022-08-19T12:46:10;9.52;;;8.27;;
59702;SDS011;45570;48.782;8.332;2022-08-19T12:48:43;9.27;;;8.43;;
59702;SDS011;45570;48.782;8.332;2022-08-19T12:51:17;8.85;;;7.95;;
59702;SDS011;45570;48.782;8.332;2022-08-19T12:53:48;8.25;;;7.55;;
59702;SDS011;45570;48.782;8.332;2022-08-19T12:56:17;9.20;;;8.40;;
59702;SDS011;45570;48.782;8.332;2022-08-19T12:58:49;8.82;;;8.13;;
59702;SDS011;45570;48.782;8.332;2022-08-19T13:01:19;8.45;;;7.50;;
59702;SDS011;45570;48.782;8.332;2022-08-19T13:03:49;8.60;;;7.70;;
59702;SDS011;45570;48.782;8.332;2022-08-19T13:06:20;10.25;;;8.63;;
59702;SDS011;45570;48.782;8.332;2022-08-19T13:08:50;10.05;;;8.95;;
59702;SDS011;45570;48.782;8.332;2022-08-19T13:11:25;8.93;;;8.13;;
59702;SDS011;45570;48.782;8.332;2022-08-19T13:13:59;9.85;;;8.93;;
59702;SDS011;45570;48.782;8.332;2022-08-19T13:16:28;8.90;;;7.82;;
59702;SDS011;45570;48.782;8.332;2022-08-19T13:18:57;8.95;;;8.05;;
59702;SDS011;45570;48.782;8.332;2022-08-19T13:21:26;8.65;;;7.75;;
59702;SDS011;45570;48.782;8.332;2022-08-19T13:23:58;9.65;;;7.70;;
59702;SDS011;45570;48.782;8.332;2022-08-19T13:26:27;8.63;;;7.82;;
59702;SDS011;45570;48.782;8.332;2022-08-19T13:28:55;8.32;;;7.57;;
59702;SDS011;45570;48.782;8.332;2022-08-19T13:31:42;8.80;;;7.90;;
59702;SDS011;45570;48.782;8.332;2022-08-19T13:34:30;7.88;;;7.22;;
59702;SDS011;45570;48.782;8.332;2022-08-19T13:37:01;7.85;;;7.15;;
59702;SDS011;45570;48.782;8.332;2022-08-19T13:39:32;7.05;;;6.35;;
59702;SDS011;45570;48.782;8.332;2022-08-19T13:42:02;7.13;;;6.53;;
59702;SDS011;45570;48.782;8.332;2022-08-19T13:44:33;6.38;;;5.78;;
59702;SDS011;45570;48.782;8.332;2022-08-19T13:47:03;6.25;;;5.65;;
59702;SDS011;45570;48.782;8.332;2022-08-19T13:49:33;6.20;;;5.63;;
59702;SDS011;45570;48.782;8.332;2022-08-19T13:52:03;8.00;;;5.97;;
59702;SDS011;45570;48.782;8.332;2022-08-19T13:54:34;6.28;;;5.55;;
59702;SDS011;45570;48.782;8.332;2022-08-19T13:57:03;6.22;;;5.65;;
59702;SDS011;45570;48.782;8.332;2022-08-19T13:59:32;6.35;;;5.75;;
59702;SDS011;45570;48.782;8.332;2022-08-19T14:02:01;6.97;;;6.30;;
59702;SDS011;45570;48.782;8.332;2022-08-19T14:04:32;8.85;;;6.38;;
59702;SDS011;45570;48.782;8.332;2022-08-19T14:07:00;6.55;;;5.90;;
59702;SDS011;45570;48.782;8.332;2022-08-19T14:09:30;6.32;;;5.72;;
59702;SDS011;45570;48.782;8.332;2022-08-19T14:12:00;6.72;;;6.03;;
59702;SDS011;45570;48.782;8.332;2022-08-19T14:14:29;6.20;;;5.60;;
59702;SDS011;45570;48.782;8.332;2022-08-19T14:16:58;5.90;;;5.40;;
59702;SDS011;45570;48.782;8.332;2022-08-19T14:19:27;6.05;;;5.50;;
59702;SDS011;45570;48.782;8.332;2022-08-19T14:21:56;6.53;;;5.93;;
59702;SDS011;45570;48.782;8.332;2022-08-19T14:24:25;13.77;;;5.18;;
59702;SDS011;45570;48.782;8.332;2022-08-19T14:26:54;5.72;;;5.22;;
59702;SDS011;45570;48.782;8.332;2022-08-19T14:29:24;6.55;;;5.95;;
59702;SDS011;45570;48.782;8.332;2022-08-19T14:31:57;6.63;;;5.65;;
59702;SDS011;45570;48.782;8.332;2022-08-19T14:34:26;6.03;;;5.40;;
59702;SDS011;45570;48.782;8.332;2022-08-19T14:36:54;6.20;;;5.60;;
59702;SDS011;45570;48.782;8.332;2022-08-19T14:39:23;5.70;;;5.20;;
59702;SDS011;45570;48.782;8.332;2022-08-19T14:41:52;6.05;;;5.53;;
59702;SDS011;45570;48.782;8.332;2022-08-19T14:44:21;6.18;;;5.57;;
59702;SDS011;45570;48.782;8.332;2022-08-19T14:46:51;5.55;;;5.05;;
59702;SDS011;45570;48.782;8.332;2022-08-19T14:49:21;5.70;;;5.03;;
59702;SDS011;45570;48.782;8.332;2022-08-19T14:52:01;5.05;;;4.60;;
59702;SDS011;45570;48.782;8.332;2022-08-19T14:54:31;5.10;;;4.70;;
59702;SDS011;45570;48.782;8.332;2022-08-19T14:57:00;10.32;;;5.20;;
59702;SDS011;45570;48.782;8.332;2022-08-19T14:59:29;5.70;;;5.10;;
59702;SDS011;45570;48.782;8.332;2022-08-19T15:01:59;5.72;;;5.15;;
59702;SDS011;45570;48.782;8.332;2022-08-19T15:04:48;7.18;;;5.25;;
59702;SDS011;45570;48.782;8.332;2022-08-19T15:07:24;5.82;;;5.32;;
59702;SDS011;45570;48.782;8.332;2022-08-19T15:09:55;6.15;;;5.57;;
59702;SDS011;45570;48.782;8.332;2022-08-19T15:12:24;5.97;;;5.47;;
59702;SDS011;45570;48.782;8.332;2022-08-19T15:14:52;6.70;;;6.07;;
59702;SDS011;45570;48.782;8.332;2022-08-19T15:17:24;6.70;;;5.45;;
59702;SDS011;45570;48.782;8.332;2022-08-19T15:20:14;5.35;;;4.88;;
59702;SDS011;45570;48.782;8.332;2022-08-19T15:22:45;5.35;;;4.88;;
59702;SDS011;45570;48.782;8.332;2022-08-19T15:25:15;6.05;;;5.10;;
59702;SDS011;45570;48.782;8.332;2022-08-19T15:27:46;5.15;;;4.70;;
59702;SDS011;45570;48.782;8.332;2022-08-19T15:30:18;5.50;;;5.00;;
59702;SDS011;45570;48.782;8.332;2022-08-19T15:32:51;5.13;;;4.57;;
59702;SDS011;45570;48.782;8.332;2022-08-19T15:35:22;5.15;;;4.75;;
59702;SDS011;45570;48.782;8.332;2022-08-19T15:37:51;5.53;;;4.72;;
59702;SDS011;45570;48.782;8.332;2022-08-19T15:40:21;5.43;;;4.93;;
59702;SDS011;45570;48.782;8.332;2022-08-19T15:42:51;4.50;;;4.10;;
59702;SDS011;45570;48.782;8.332;2022-08-19T15:45:21;5.70;;;4.45;;
59702;SDS011;45570;48.782;8.332;2022-08-19T15:48:00;5.00;;;4.60;;
59702;SDS011;45570;48.782;8.332;2022-08-19T15:50:30;4.47;;;4.07;;
59702;SDS011;45570;48.782;8.332;2022-08-19T15:53:00;5.47;;;4.20;;
59702;SDS011;45570;48.782;8.332;2022-08-19T15:55:32;5.15;;;4.63;;
59702;SDS011;45570;48.782;8.332;2022-08-19T15:58:02;4.85;;;4.45;;
59702;SDS011;45570;48.782;8.332;2022-08-19T16:00:55;4.60;;;4.20;;
59702;SDS011;45570;48.782;8.332;2022-08-19T16:03:44;4.40;;;4.00;;
59702;SDS011;45570;48.782;8.332;2022-08-19T16:06:38;4.68;;;4.28;;
59702;SDS011;45570;48.782;8.332;2022-08-19T16:09:08;4.38;;;3.97;;
59702;SDS011;45570;48.782;8.332;2022-08-19T16:11:38;5.60;;;5.10;;
59702;SDS011;45570;48.782;8.332;2022-08-19T16:14:11;6.70;;;5.53;;
59702;SDS011;45570;48.782;8.332;2022-08-19T16:16:41;7.03;;;5.68;;
59702;SDS011;45570;48.782;8.332;2022-08-19T16:19:14;6.40;;;5.85;;
59702;SDS011;45570;48.782;8.332;2022-08-19T16:21:47;6.88;;;6.18;;
59702;SDS011;45570;48.782;8.332;2022-08-19T16:24:19;6.68;;;5.97;;
59702;SDS011;45570;48.782;8.332;2022-08-19T16:26:49;7.15;;;6.30;;
59702;SDS011;45570;48.782;8.332;2022-08-19T16:29:18;6.57;;;5.97;;
59702;SDS011;45570;48.782;8.332;2022-08-19T16:32:05;7.43;;;6.00;;
59702;SDS011;45570;48.782;8.332;2022-08-19T16:34:37;7.57;;;6.88;;
59702;SDS011;45570;48.782;8.332;2022-08-19T16:37:07;7.70;;;7.00;;
59702;SDS011;45570;48.782;8.332;2022-08-19T16:39:36;8.02;;;6.70;;
59702;SDS011;45570;48.782;8.332;2022-08-19T16:42:09;8.02;;;7.22;;
59702;SDS011;45570;48.782;8.332;2022-08-19T16:44:40;7.40;;;6.70;;
59702;SDS011;45570;48.782;8.332;2022-08-19T16:47:10;8.85;;;7.38;;
59702;SDS011;45570;48.782;8.332;2022-08-19T16:49:41;8.43;;;7.53;;
59702;SDS011;45570;48.782;8.332;2022-08-19T16:52:20;9.00;;;7.25;;
59702;SDS011;45570;48.782;8.332;2022-08-19T16:54:51;7.95;;;7.20;;
59702;SDS011;45570;48.782;8.332;2022-08-19T16:57:21;7.38;;;6.68;;
59702;SDS011;45570;48.782;8.332;2022-08-19T16:59:50;8.13;;;7.32;;
59702;SDS011;45570;48.782;8.332;2022-08-19T17:02:20;12.60;;;7.63;;
59702;SDS011;45570;48.782;8.332;2022-08-19T17:04:56;8.13;;;7.32;;
59702;SDS011;45570;48.782;8.332;2022-08-19T17:07:26;8.80;;;7.88;;
59702;SDS011;45570;48.782;8.332;2022-08-19T17:09:59;8.13;;;7.25;;
59702;SDS011;45570;48.782;8.332;2022-08-19T17:12:28;7.65;;;7.00;;
59702;SDS011;45570;48.782;8.332;2022-08-19T17:14:58;8.20;;;7.40;;
59702;SDS011;45570;48.782;8.332;2022-08-19T17:17:28;7.60;;;6.65;;
59702;SDS011;45570;48.782;8.332;2022-08-19T17:19:59;7.40;;;6.63;;
59702;SDS011;45570;48.782;8.332;2022-08-19T17:22:29;7.22;;;6.53;;
59702;SDS011;45570;48.782;8.332;2022-08-19T17:24:58;7.07;;;6.40;;
59702;SDS011;45570;48.782;8.332;2022-08-19T17:27:27;50.67;;;10.50;;
59702;SDS011;45570;48.782;8.332;2022-08-19T17:29:58;9.23;;;5.85;;
59702;SDS011;45570;48.782;8.332;2022-08-19T17:32:28;6.20;;;5.60;;
59702;SDS011;45570;48.782;8.332;2022-08-19T17:35:01;6.20;;;5.57;;
59702;SDS011;45570;48.782;8.332;2022-08-19T17:37:30;6.95;;;5.88;;
59702;SDS011;45570;48.782;8.332;2022-08-19T17:40:00;5.30;;;4.80;;
59702;SDS011;45570;48.782;8.332;2022-08-19T17:42:29;5.50;;;5.00;;
59702;SDS011;45570;48.782;8.332;2022-08-19T17:44:58;5.40;;;4.70;;
59702;SDS011;45570;48.782;8.332;2022-08-19T17:47:27;4.90;;;4.50;;
59702;SDS011;45570;48.782;8.332;2022-08-19T17:49:56;6.63;;;4.63;;
59702;SDS011;45570;48.782;8.332;2022-08-19T17:52:27;4.53;;;4.13;;
59702;SDS011;45570;48.782;8.332;2022-08-19T17:54:56;4.95;;;4.53;;
59702;SDS011;45570;48.782;8.332;2022-08-19T17:57:24;4.95;;;4.50;;
59702;SDS011;45570;48.782;8.332;2022-08-19T17:59:53;4.93;;;4.43;;
59702;SDS011;45570;48.782;8.332;2022-08-19T18:02:24;5.13;;;4.32;;
59702;SDS011;45570;48.782;8.332;2022-08-19T18:04:55;4.63;;;4.20;;
59702;SDS011;45570;48.782;8.332;2022-08-19T18:07:24;5.40;;;4.32;;
59702;SDS011;45570;48.782;8.332;2022-08-19T18:09:54;4.82;;;4.30;;
59702;SDS011;45570;48.782;8.332;2022-08-19T18:12:27;4.63;;;4.20;;
59702;SDS011;45570;48.782;8.332;2022-08-19T18:14:56;4.40;;;4.00;;
59702;SDS011;45570;48.782;8.332;2022-08-19T18:17:25;4.43;;;4.03;;
59702;SDS011;45570;48.782;8.332;2022-08-19T18:19:54;4.95;;;4.45;;
59702;SDS011;45570;48.782;8.332;2022-08-19T18:22:24;4.22;;;3.92;;
59702;SDS011;45570;48.782;8.332;2022-08-19T18:24:57;5.30;;;4.43;;
59702;SDS011;45570;48.782;8.332;2022-08-19T18:27:28;5.43;;;4.38;;
59702;SDS011;45570;48.782;8.332;2022-08-19T18:29:57;4.35;;;3.78;;
59702;SDS011;45570;48.782;8.332;2022-08-19T18:32:27;3.90;;;3.60;;
59702;SDS011;45570;48.782;8.332;2022-08-19T18:34:58;4.68;;;3.88;;
59702;SDS011;45570;48.782;8.332;2022-08-19T18:37:28;4.22;;;3.83;;
59702;SDS011;45570;48.782;8.332;2022-08-19T18:39:58;4.55;;;3.70;;
59702;SDS011;45570;48.782;8.332;2022-08-19T18:42:45;3.80;;;3.38;;
59702;SDS011;45570;48.782;8.332;2022-08-19T18:45:31;3.55;;;3.25;;
59702;SDS011;45570;48.782;8.332;2022-08-19T18:48:17;7.05;;;3.45;;
59702;SDS011;45570;48.782;8.332;2022-08-19T18:51:03;5.65;;;3.55;;
59702;SDS011;45570;48.782;8.332;2022-08-19T18:53:33;8.35;;;3.38;;
59702;SDS011;45570;48.782;8.332;2022-08-19T18:56:06;3.78;;;2.85;;
59702;SDS011;45570;48.782;8.332;2022-08-19T18:58:36;3.00;;;2.80;;
59702;SDS011;45570;48.782;8.332;2022-08-19T19:01:07;4.07;;;2.50;;
59702;SDS011;45570;48.782;8.332;2022-08-19T19:03:38;2.80;;;2.60;;
59702;SDS011;45570;48.782;8.332;2022-08-19T19:06:11;2.63;;;2.38;;
59702;SDS011;45570;48.782;8.332;2022-08-19T19:08:44;2.47;;;2.28;;
59702;SDS011;45570;48.782;8.332;2022-08-19T19:11:15;2.72;;;2.10;;
59702;SDS011;45570;48.782;8.332;2022-08-19T19:13:48;2.47;;;2.20;;
59702;SDS011;45570;48.782;8.332;2022-08-19T19:16:17;3.35;;;1.98;;
59702;SDS011;45570;48.782;8.332;2022-08-19T19:18:50;2.67;;;2.00;;
59702;SDS011;45570;48.782;8.332;2022-08-19T19:21:19;2.42;;;2.22;;
59702;SDS011;45570;48.782;8.332;2022-08-19T19:23:49;2.30;;;2.10;;
59702;SDS011;45570;48.782;8.332;2022-08-19T19:26:21;1.88;;;1.70;;
59702;SDS011;45570;48.782;8.332;2022-08-19T19:28:50;1.88;;;1.77;;
59702;SDS011;45570;48.782;8.332;2022-08-19T19:31:21;1.88;;;1.70;;
59702;SDS011;45570;48.782;8.332;2022-08-19T19:33:53;2.53;;;1.80;;
59702;SDS011;45570;48.782;8.332;2022-08-19T19:36:22;1.65;;;1.55;;
59702;SDS011;45570;48.782;8.332;2022-08-19T19:38:51;3.08;;;1.73;;
59702;SDS011;45570;48.782;8.332;2022-08-19T19:41:22;1.60;;;1.50;;
59702;SDS011;45570;48.782;8.332;2022-08-19T19:43:51;1.50;;;1.40;;
59702;SDS011;45570;48.782;8.332;2022-08-19T19:46:41;1.58;;;1.35;;
59702;SDS011;45570;48.782;8.332;2022-08-19T19:49:11;1.50;;;1.40;;
59702;SDS011;45570;48.782;8.332;2022-08-19T19:51:40;1.58;;;1.48;;
59702;SDS011;45570;48.782;8.332;2022-08-19T19:54:10;1.75;;;1.60;;
59702;SDS011;45570;48.782;8.332;2022-08-19T19:56:41;1.45;;;1.35;;
59702;SDS011;45570;48.782;8.332;2022-08-19T19:59:11;1.67;;;1.58;;
59702;SDS011;45570;48.782;8.332;2022-08-19T20:01:40;3.35;;;1.70;;
59702;SDS011;45570;48.782;8.332;2022-08-19T20:04:12;2.03;;;1.88;;
59702;SDS011;45570;48.782;8.332;2022-08-19T20:06:42;3.78;;;1.70;;
59702;SDS011;45570;48.782;8.332;2022-08-19T20:09:11;1.45;;;1.02;;
59702;SDS011;45570;48.782;8.332;2022-08-19T20:11:47;2.20;;;1.33;;
59702;SDS011;45570;48.782;8.332;2022-08-19T20:14:20;1.48;;;1.10;;
59702;SDS011;45570;48.782;8.332;2022-08-19T20:16:51;1.20;;;1.10;;
59702;SDS011;45570;48.782;8.332;2022-08-19T20:19:22;1.65;;;1.55;;
59702;SDS011;45570;48.782;8.332;2022-08-19T20:21:53;1.55;;;1.45;;
59702;SDS011;45570;48.782;8.332;2022-08-19T20:24:23;2.22;;;1.55;;
59702;SDS011;45570;48.782;8.332;2022-08-19T20:26:59;1.63;;;1.52;;
59702;SDS011;45570;48.782;8.332;2022-08-19T20:29:29;1.55;;;1.45;;
59702;SDS011;45570;48.782;8.332;2022-08-19T20:32:07;1.20;;;1.10;;
59702;SDS011;45570;48.782;8.332;2022-08-19T20:34:36;0.98;;;0.98;;
59702;SDS011;45570;48.782;8.332;2022-08-19T20:37:05;1.00;;;1.00;;
59702;SDS011;45570;48.782;8.332;2022-08-19T20:39:35;1.30;;;1.20;;
59702;SDS011;45570;48.782;8.332;2022-08-19T20:42:06;1.10;;;1.10;;
59702;SDS011;45570;48.782;8.332;2022-08-19T20:44:34;1.10;;;1.00;;
59702;SDS011;45570;48.782;8.332;2022-08-19T20:47:03;1.30;;;1.20;;
59702;SDS011;45570;48.782;8.332;2022-08-19T20:49:33;0.98;;;0.95;;
59702;SDS011;45570;48.782;8.332;2022-08-19T20:52:02;1.30;;;1.20;;
59702;SDS011;45570;48.782;8.332;2022-08-19T20:54:32;1.13;;;1.10;;
59702;SDS011;45570;48.782;8.332;2022-08-19T20:57:01;1.05;;;0.95;;
59702;SDS011;45570;48.782;8.332;2022-08-19T20:59:32;1.05;;;0.95;;
59702;SDS011;45570;48.782;8.332;2022-08-19T21:02:02;0.80;;;0.80;;
59702;SDS011;45570;48.782;8.332;2022-08-19T21:04:31;1.80;;;1.20;;
59702;SDS011;45570;48.782;8.332;2022-08-19T21:07:00;1.45;;;1.20;;
59702;SDS011;45570;48.782;8.332;2022-08-19T21:09:29;1.75;;;1.15;;
59702;SDS011;45570;48.782;8.332;2022-08-19T21:11:57;0.98;;;0.98;;
59702;SDS011;45570;48.782;8.332;2022-08-19T21:14:26;2.17;;;1.00;;
59702;SDS011;45570;48.782;8.332;2022-08-19T21:16:56;1.23;;;1.13;;
59702;SDS011;45570;48.782;8.332;2022-08-19T21:19:25;0.80;;;0.80;;
59702;SDS011;45570;48.782;8.332;2022-08-19T21:21:54;1.02;;;1.00;;
59702;SDS011;45570;48.782;8.332;2022-08-19T21:24:23;0.80;;;0.80;;
59702;SDS011;45570;48.782;8.332;2022-08-19T21:26:57;1.63;;;1.08;;
59702;SDS011;45570;48.782;8.332;2022-08-19T21:29:26;0.70;;;0.70;;
59702;SDS011;45570;48.782;8.332;2022-08-19T21:31:59;0.73;;;0.73;;
59702;SDS011;45570;48.782;8.332;2022-08-19T21:34:27;1.17;;;1.02;;
59702;SDS011;45570;48.782;8.332;2022-08-19T21:36:56;1.08;;;1.00;;
59702;SDS011;45570;48.782;8.332;2022-08-19T21:39:25;0.93;;;0.90;;
59702;SDS011;45570;48.782;8.332;2022-08-19T21:41:54;0.75;;;0.75;;
59702;SDS011;45570;48.782;8.332;2022-08-19T21:44:23;0.73;;;0.73;;
59702;SDS011;45570;48.782;8.332;2022-08-19T21:46:51;2.00;;;1.00;;
59702;SDS011;45570;48.782;8.332;2022-08-19T21:49:22;1.00;;;0.90;;
